Time;durP1;ratioP1;P1;durP2;ratioP2;P2;SDS_P1;SDS_P2;PMS_P1;PMS_P2;Temp;Humidity;BMP_temperature;BMP_pressure;BME280_temperature;BME280_humidity;BME280_pressure;Samples;Min_cycle;Max_cycle;Signal;HPM_P1;HPM_P2
2022/06/13 00:00:09;;;;;;;;;24.80;13.00;;;;;;;;4981409;28;8767;-65
2022/06/13 00:02:36;;;;;;;;;18.80;13.40;;;;;;;;4981260;28;8914;-65
2022/06/13 00:05:03;;;;;;;;;8.20;7.20;;;;;;;;4981783;28;8778;-65
2022/06/13 00:07:30;;;;;;;;;12.60;12.00;;;;;;;;4981549;28;8774;-65
2022/06/13 00:09:57;;;;;;;;;9.00;9.00;;;;;;;;4982265;28;8767;-65
2022/06/13 00:12:24;;;;;;;;;12.00;9.00;;;;;;;;4981067;28;8787;-65
2022/06/13 00:14:50;;;;;;;;;11.20;10.60;;;;;;;;4981367;28;8806;-65
2022/06/13 00:17:17;;;;;;;;;14.20;11.60;;;;;;;;4981504;28;8776;-65
2022/06/13 00:19:43;;;;;;;;;10.40;10.40;;;;;;;;4981456;28;8890;-65
2022/06/13 00:22:10;;;;;;;;;12.00;10.00;;;;;;;;4981111;28;8784;-65
2022/06/13 00:24:37;;;;;;;;;9.20;9.20;;;;;;;;4980962;28;8807;-64
2022/06/13 00:27:04;;;;;;;;;11.60;9.20;;;;;;;;4981233;28;8826;-65
2022/06/13 00:29:30;;;;;;;;;9.00;9.00;;;;;;;;4969746;28;8796;-65
2022/06/13 00:31:57;;;;;;;;;9.40;7.60;;;;;;;;4968081;28;8794;-64
2022/06/13 00:34:23;;;;;;;;;11.20;8.20;;;;;;;;4961966;28;8782;-65
2022/06/13 00:36:50;;;;;;;;;5.40;5.00;;;;;;;;4944669;28;8797;-65
2022/06/13 00:39:17;;;;;;;;;9.00;5.20;;;;;;;;4961111;28;8789;-64
2022/06/13 00:41:44;;;;;;;;;6.00;5.00;;;;;;;;4961492;28;9148;-64
2022/06/13 00:44:27;;;;;;;;;6.60;5.80;;;;;;;;4963838;28;8807;-65
2022/06/13 00:46:54;;;;;;;;;3.80;2.80;;;;;;;;4979231;28;8788;-65
2022/06/13 00:49:22;;;;;;;;;6.80;5.60;;;;;;;;4980558;28;8760;-64
2022/06/13 00:52:07;;;;;;;;;6.00;5.00;;;;;;;;4962830;28;9748;-64
2022/06/13 00:54:34;;;;;;;;;7.40;5.20;;;;;;;;4961924;28;8807;-65
2022/06/13 00:57:00;;;;;;;;;5.20;5.00;;;;;;;;4979478;28;8811;-64
2022/06/13 00:59:27;;;;;;;;;5.00;4.00;;;;;;;;4978375;28;8783;-63
2022/06/13 01:01:54;;;;;;;;;2.20;2.20;;;;;;;;4979957;28;8787;-65
2022/06/13 01:04:21;;;;;;;;;7.00;3.20;;;;;;;;4980244;28;8756;-65
2022/06/13 01:06:48;;;;;;;;;2.80;2.80;;;;;;;;4978204;28;8803;-65
2022/06/13 01:09:16;;;;;;;;;6.80;4.60;;;;;;;;4978364;28;8791;-65
2022/06/13 01:11:46;;;;;;;;;8.00;5.60;;;;;;;;4979078;28;8886;-65
2022/06/13 01:14:20;;;;;;;;;4.00;4.00;;;;;;;;4961233;28;8799;-65
2022/06/13 01:16:50;;;;;;;;;8.80;8.60;;;;;;;;4978238;28;8783;-65
2022/06/13 01:19:35;;;;;;;;;7.20;7.00;;;;;;;;4980272;28;8756;-63
2022/06/13 01:22:11;;;;;;;;;11.00;6.00;;;;;;;;4963095;28;8768;-66
2022/06/13 01:24:56;;;;;;;;;14.40;7.00;;;;;;;;4980806;28;8818;-65
2022/06/13 01:27:32;;;;;;;;;8.20;7.00;;;;;;;;4963673;28;8764;-65
2022/06/13 01:30:11;;;;;;;;;6.80;6.40;;;;;;;;4980873;28;8833;-65
2022/06/13 01:32:56;;;;;;;;;7.60;5.60;;;;;;;;4963323;28;8861;-65
2022/06/13 01:35:25;;;;;;;;;6.60;5.00;;;;;;;;4964164;28;8747;-66
2022/06/13 01:37:58;;;;;;;;;11.20;7.80;;;;;;;;4964057;28;8800;-66
2022/06/13 01:40:35;;;;;;;;;4.40;4.20;;;;;;;;4964881;28;8763;-65
2022/06/13 01:43:05;;;;;;;;;7.60;7.60;;;;;;;;4964131;28;8788;-65
2022/06/13 01:45:36;;;;;;;;;5.00;4.60;;;;;;;;4979280;28;8796;-65
2022/06/13 01:48:06;;;;;;;;;10.80;7.00;;;;;;;;4976174;28;8823;-65
2022/06/13 01:50:39;;;;;;;;;6.60;6.00;;;;;;;;4976599;28;8862;-65
2022/06/13 01:53:19;;;;;;;;;5.60;5.00;;;;;;;;4961195;28;8859;-65
2022/06/13 01:55:53;;;;;;;;;9.00;5.40;;;;;;;;4976931;28;8775;-66
2022/06/13 01:58:23;;;;;;;;;8.40;6.00;;;;;;;;4978573;28;8832;-64
2022/06/13 02:00:56;;;;;;;;;6.40;5.00;;;;;;;;4979542;28;8756;-65
2022/06/13 02:03:27;;;;;;;;;6.60;5.00;;;;;;;;4962467;28;8901;-64
2022/06/13 02:05:56;;;;;;;;;5.40;5.40;;;;;;;;4962045;28;9480;-65
2022/06/13 02:08:24;;;;;;;;;6.00;4.00;;;;;;;;4962128;28;8764;-65
2022/06/13 02:10:58;;;;;;;;;13.00;4.00;;;;;;;;4962232;28;9495;-65
2022/06/13 02:13:35;;;;;;;;;9.80;5.00;;;;;;;;4961985;28;8806;-63
2022/06/13 02:16:08;;;;;;;;;9.20;6.20;;;;;;;;4962283;28;8771;-66
2022/06/13 02:18:35;;;;;;;;;6.40;4.80;;;;;;;;4976826;28;8783;-65
2022/06/13 02:21:06;;;;;;;;;8.20;6.40;;;;;;;;4978960;28;8776;-66
2022/06/13 02:23:33;;;;;;;;;10.00;6.40;;;;;;;;4977506;28;9492;-65
2022/06/13 02:26:01;;;;;;;;;4.80;4.80;;;;;;;;4977615;28;8771;-65
2022/06/13 02:28:31;;;;;;;;;7.40;6.80;;;;;;;;4977319;28;9463;-65
2022/06/13 02:30:59;;;;;;;;;7.20;7.20;;;;;;;;4977896;28;8772;-65
2022/06/13 02:33:32;;;;;;;;;4.40;4.00;;;;;;;;4961181;28;8767;-65
2022/06/13 02:36:04;;;;;;;;;3.60;3.60;;;;;;;;4978803;28;9629;-65
2022/06/13 02:38:33;;;;;;;;;7.40;7.40;;;;;;;;4963295;28;8763;-65
2022/06/13 02:41:09;;;;;;;;;8.00;7.00;;;;;;;;4962732;28;8803;-65
2022/06/13 02:43:39;;;;;;;;;4.20;4.20;;;;;;;;4979666;28;8820;-65
2022/06/13 02:46:24;;;;;;;;;11.40;7.60;;;;;;;;4979028;28;8907;-65
2022/06/13 02:48:52;;;;;;;;;9.20;7.00;;;;;;;;4978165;28;8783;-66
2022/06/13 02:51:36;;;;;;;;;8.60;8.00;;;;;;;;4978425;28;8823;-65
2022/06/13 02:54:07;;;;;;;;;13.80;11.00;;;;;;;;4967570;28;8805;-65
2022/06/13 02:59:57;;;;;;;;;9.00;8.40;;;;;;;;4939218;28;8753;-65
2022/06/13 03:02:38;;;;;;;;;10.80;9.20;;;;;;;;4938936;28;8769;-65
2022/06/13 03:05:23;;;;;;;;;13.40;11.20;;;;;;;;4954742;28;8773;-65
2022/06/13 03:07:53;;;;;;;;;16.80;12.20;;;;;;;;4940027;28;8844;-65
2022/06/13 03:10:21;;;;;;;;;12.00;9.40;;;;;;;;4954782;28;8813;-65
2022/06/13 03:13:05;;;;;;;;;12.40;10.20;;;;;;;;4954439;28;8778;-65
2022/06/13 03:15:34;;;;;;;;;10.80;9.00;;;;;;;;4939241;28;9474;-65
2022/06/13 03:18:03;;;;;;;;;13.40;11.00;;;;;;;;4938543;29;8892;-65
2022/06/13 03:20:50;;;;;;;;;9.80;9.00;;;;;;;;4955765;28;8801;-66
2022/06/13 03:23:24;;;;;;;;;12.80;12.60;;;;;;;;4941746;28;8805;-65
2022/06/13 03:25:55;;;;;;;;;11.20;10.40;;;;;;;;4933651;28;8797;-65
2022/06/13 03:28:28;;;;;;;;;12.20;11.20;;;;;;;;4939288;29;8793;-65
2022/06/13 03:31:02;;;;;;;;;10.20;7.60;;;;;;;;4956551;28;8900;-65
2022/06/13 03:33:40;;;;;;;;;10.20;9.00;;;;;;;;4954775;28;8789;-65
2022/06/13 03:36:09;;;;;;;;;11.40;9.60;;;;;;;;4954211;28;8819;-65
2022/06/13 03:38:40;;;;;;;;;11.00;9.60;;;;;;;;4938453;28;8831;-67
2022/06/13 03:41:07;;;;;;;;;11.00;8.00;;;;;;;;4936115;28;8812;-66
2022/06/13 03:43:34;;;;;;;;;12.40;10.20;;;;;;;;4951990;28;8833;-65
2022/06/13 03:46:08;;;;;;;;;12.80;11.00;;;;;;;;4939293;28;8789;-66
2022/06/13 03:48:50;;;;;;;;;12.80;12.80;;;;;;;;4953204;28;8797;-66
2022/06/13 03:51:21;;;;;;;;;16.80;15.60;;;;;;;;4938712;28;8789;-63
2022/06/13 03:53:51;;;;;;;;;16.25;13.00;;;;;;;;4948171;28;8880;-66
2022/06/13 03:56:19;;;;;;;;;14.40;12.00;;;;;;;;4977115;28;8732;-70
2022/06/13 03:59:04;;;;;;;;;14.00;10.80;;;;;;;;4977752;28;8771;-70
2022/06/13 04:01:38;;;;;;;;;14.80;9.20;;;;;;;;4959958;28;8788;-68
2022/06/13 04:04:05;;;;;;;;;10.20;6.80;;;;;;;;4978350;28;8740;-66
2022/06/13 04:06:34;;;;;;;;;13.00;11.60;;;;;;;;4976577;28;8842;-65
2022/06/13 04:09:01;;;;;;;;;13.00;9.75;;;;;;;;4957652;28;8760;-65
2022/06/13 04:11:37;;;;;;;;;11.80;9.80;;;;;;;;4959764;28;8771;-65
2022/06/13 04:14:04;;;;;;;;;9.00;7.00;;;;;;;;4977657;28;8970;-67
2022/06/13 04:16:57;;;;;;;;;11.25;8.50;;;;;;;;4976628;28;8791;-66
2022/06/13 04:19:46;;;;;;;;;9.60;9.20;;;;;;;;4949452;28;8866;-66
2022/06/13 04:22:22;;;;;;;;;10.80;10.80;;;;;;;;4965537;28;8756;-66
2022/06/13 04:24:59;;;;;;;;;11.40;10.60;;;;;;;;4982843;28;10013;-65
2022/06/13 04:27:30;;;;;;;;;11.40;9.80;;;;;;;;4981434;28;8775;-65
2022/06/13 04:30:17;;;;;;;;;15.00;15.00;;;;;;;;4961231;28;8935;-65
2022/06/13 04:33:04;;;;;;;;;15.80;11.00;;;;;;;;4961349;28;8821;-64
2022/06/13 04:35:31;;;;;;;;;16.80;13.20;;;;;;;;4941503;28;8811;-71
2022/06/13 04:38:00;;;;;;;;;15.40;12.40;;;;;;;;4962735;28;8789;-70
2022/06/13 04:40:26;;;;;;;;;10.60;8.40;;;;;;;;4959533;28;8785;-70
2022/06/13 04:42:54;;;;;;;;;12.60;11.60;;;;;;;;4962559;28;8862;-69
2022/06/13 04:45:34;;;;;;;;;15.20;12.00;;;;;;;;4979012;28;8818;-67
2022/06/13 04:48:01;;;;;;;;;13.80;12.00;;;;;;;;4980848;28;8798;-68
2022/06/13 04:50:30;;;;;;;;;13.60;12.00;;;;;;;;4979772;28;8775;-70
2022/06/13 04:52:56;;;;;;;;;12.00;10.60;;;;;;;;4963244;28;8885;-69
2022/06/13 04:55:25;;;;;;;;;10.00;9.80;;;;;;;;4943627;29;8793;-65
2022/06/13 04:57:52;;;;;;;;;16.25;12.00;;;;;;;;4956981;28;8928;-66
2022/06/13 05:00:18;;;;;;;;;19.80;11.60;;;;;;;;4937365;29;8866;-64
2022/06/13 05:02:48;;;;;;;;;14.00;11.20;;;;;;;;4923358;29;8812;-67
2022/06/13 05:05:27;;;;;;;;;10.00;10.00;;;;;;;;4921496;29;8828;-66
2022/06/13 05:07:54;;;;;;;;;13.00;12.20;;;;;;;;4922354;29;8792;-67
2022/06/13 05:10:21;;;;;;;;;12.20;9.80;;;;;;;;4922772;29;8796;-64
2022/06/13 05:12:48;;;;;;;;;12.80;9.80;;;;;;;;4921842;29;8780;-65
2022/06/13 05:15:19;;;;;;;;;15.25;13.75;;;;;;;;4934883;29;8813;-65
2022/06/13 05:17:48;;;;;;;;;13.25;12.00;;;;;;;;4940005;28;8801;-65
2022/06/13 05:20:18;;;;;;;;;7.60;5.40;;;;;;;;4941929;28;8792;-64
2022/06/13 05:22:51;;;;;;;;;21.25;12.25;;;;;;;;4956736;28;8817;-65
2022/06/13 05:25:18;;;;;;;;;15.50;13.25;;;;;;;;4941867;29;8852;-64
2022/06/13 05:27:44;;;;;;;;;14.80;12.40;;;;;;;;4941515;28;8856;-66
2022/06/13 05:30:14;;;;;;;;;12.00;11.00;;;;;;;;4936955;29;8780;-66
2022/06/13 05:32:41;;;;;;;;;11.20;11.00;;;;;;;;4921126;29;8792;-67
2022/06/13 05:35:12;;;;;;;;;14.40;12.20;;;;;;;;4922738;29;8776;-67
2022/06/13 05:37:39;;;;;;;;;12.40;11.60;;;;;;;;4922663;29;8843;-67
2022/06/13 05:40:06;;;;;;;;;11.50;10.25;;;;;;;;4921435;29;8776;-66
2022/06/13 05:42:32;;;;;;;;;12.60;12.60;;;;;;;;4922409;29;8839;-66
2022/06/13 05:44:59;;;;;;;;;15.25;11.50;;;;;;;;4932523;29;8810;-67
2022/06/13 05:47:25;;;;;;;;;14.00;13.50;;;;;;;;4941239;28;8832;-67
2022/06/13 05:49:52;;;;;;;;;20.00;13.00;;;;;;;;4942158;28;8773;-66
2022/06/13 05:52:19;;;;;;;;;13.50;11.75;;;;;;;;4941920;28;8812;-66
2022/06/13 05:54:45;;;;;;;;;18.75;13.75;;;;;;;;4964558;28;8791;-67
2022/06/13 05:57:12;;;;;;;;;16.25;12.75;;;;;;;;4979801;28;8909;-68
2022/06/13 05:59:39;;;;;;;;;14.00;11.25;;;;;;;;4980140;28;9492;-67
2022/06/13 06:02:05;;;;;;;;;15.50;15.00;;;;;;;;4980107;28;8802;-67
2022/06/13 06:04:32;;;;;;;;;17.25;13.50;;;;;;;;4979983;28;8787;-67
2022/06/13 06:06:59;;;;;;;;;16.00;11.75;;;;;;;;4981324;28;9048;-67
2022/06/13 06:09:25;;;;;;;;;14.50;12.50;;;;;;;;4978672;28;8861;-67
2022/06/13 06:11:52;;;;;;;;;16.25;13.00;;;;;;;;4962418;28;8890;-67
2022/06/13 06:14:19;;;;;;;;;15.80;15.20;;;;;;;;4979916;28;8805;-66
2022/06/13 06:16:45;;;;;;;;;12.25;8.00;;;;;;;;4962984;28;8775;-67
2022/06/13 06:19:13;;;;;;;;;14.75;12.25;;;;;;;;4981234;28;8780;-67
2022/06/13 06:21:39;;;;;;;;;14.00;12.00;;;;;;;;4980746;28;8838;-68
2022/06/13 06:24:06;;;;;;;;;16.75;13.50;;;;;;;;4980123;28;8775;-68
2022/06/13 06:26:33;;;;;;;;;16.00;15.00;;;;;;;;4978654;28;8791;-66
2022/06/13 06:28:59;;;;;;;;;14.50;13.25;;;;;;;;4979244;28;8791;-67
2022/06/13 06:31:26;;;;;;;;;16.75;15.25;;;;;;;;4978824;28;8772;-68
2022/06/13 06:33:53;;;;;;;;;18.50;16.00;;;;;;;;4979752;28;8783;-67
2022/06/13 06:36:20;;;;;;;;;17.00;15.50;;;;;;;;4979174;28;8791;-66
2022/06/13 06:38:47;;;;;;;;;17.50;14.75;;;;;;;;4978890;28;8800;-67
2022/06/13 06:41:14;;;;;;;;;15.50;13.75;;;;;;;;4978866;28;9086;-67
2022/06/13 06:43:41;;;;;;;;;19.25;16.00;;;;;;;;4978148;28;8803;-67
2022/06/13 06:46:08;;;;;;;;;16.00;13.75;;;;;;;;4961905;28;8865;-67
2022/06/13 06:48:36;;;;;;;;;19.00;14.80;;;;;;;;4978598;28;8857;-67
2022/06/13 06:51:05;;;;;;;;;21.00;16.00;;;;;;;;4979267;28;8795;-67
2022/06/13 06:59:53;;;;;;;;;17.00;12.75;;;;;;;;4977548;28;8815;-67
2022/06/13 07:01:48;;;;;;;;;17.00;14.00;;;;;;;;4978888;28;8890;-67
2022/06/13 07:04:15;;;;;;;;;23.00;16.25;;;;;;;;4979665;28;8802;-67
2022/06/13 07:06:42;;;;;;;;;16.40;15.40;;;;;;;;4978427;28;8775;-67
2022/06/13 07:09:08;;;;;;;;;19.25;16.50;;;;;;;;4979142;28;8767;-67
2022/06/13 07:11:56;;;;;;;;;18.25;15.25;;;;;;;;4977944;28;8802;-66
2022/06/13 07:14:22;;;;;;;;;21.25;16.00;;;;;;;;4977365;28;8819;-67
2022/06/13 07:16:49;;;;;;;;;17.50;15.25;;;;;;;;4976914;28;8850;-67
2022/06/13 07:19:16;;;;;;;;;19.25;16.00;;;;;;;;4978939;28;8787;-67
2022/06/13 07:21:43;;;;;;;;;23.00;18.50;;;;;;;;4978111;28;8850;-67
2022/06/13 07:24:10;;;;;;;;;19.00;16.00;;;;;;;;4978369;28;8787;-67
2022/06/13 07:26:37;;;;;;;;;13.75;11.00;;;;;;;;4977026;28;8791;-67
2022/06/13 07:29:04;;;;;;;;;20.50;16.50;;;;;;;;4978622;28;8850;-67
2022/06/13 07:31:34;;;;;;;;;20.00;17.00;;;;;;;;4961232;28;8752;-67
2022/06/13 07:34:01;;;;;;;;;21.00;15.75;;;;;;;;4978993;28;8760;-67
2022/06/13 07:36:27;;;;;;;;;21.25;17.50;;;;;;;;4978236;28;8811;-67
2022/06/13 07:38:54;;;;;;;;;24.50;17.75;;;;;;;;4978851;28;8794;-67
2022/06/13 07:41:21;;;;;;;;;18.00;17.25;;;;;;;;4978548;28;9262;-67
2022/06/13 07:43:49;;;;;;;;;21.75;16.00;;;;;;;;4961572;28;8838;-67
2022/06/13 07:46:15;;;;;;;;;18.25;15.25;;;;;;;;4979181;28;8782;-67
2022/06/13 07:48:42;;;;;;;;;23.25;17.00;;;;;;;;4978129;28;8783;-67
2022/06/13 07:51:09;;;;;;;;;22.00;18.75;;;;;;;;4978587;28;9424;-67
2022/06/13 07:53:36;;;;;;;;;16.75;14.75;;;;;;;;4978498;28;8787;-67
2022/06/13 07:56:03;;;;;;;;;17.20;16.60;;;;;;;;4980453;28;8783;-66
2022/06/13 07:58:35;;;;;;;;;17.75;17.25;;;;;;;;4965188;28;8804;-67
2022/06/13 08:01:01;;;;;;;;;24.25;18.25;;;;;;;;4982771;28;8763;-68
2022/06/13 08:03:29;;;;;;;;;18.20;17.20;;;;;;;;4964718;28;8775;-67
2022/06/13 08:05:56;;;;;;;;;21.00;19.00;;;;;;;;4981400;28;8798;-67
2022/06/13 08:08:23;;;;;;;;;19.00;16.25;;;;;;;;4981843;28;8869;-67
2022/06/13 08:10:50;;;;;;;;;20.50;16.50;;;;;;;;4964520;28;8759;-67
2022/06/13 08:13:17;;;;;;;;;18.25;16.25;;;;;;;;4982626;28;8779;-66
2022/06/13 08:15:44;;;;;;;;;18.00;17.25;;;;;;;;4980640;28;8795;-67
2022/06/13 08:18:13;;;;;;;;;24.00;20.75;;;;;;;;4981371;28;8779;-67
2022/06/13 08:20:40;;;;;;;;;20.75;17.50;;;;;;;;4981000;28;8810;-67
2022/06/13 08:23:08;;;;;;;;;19.40;15.20;;;;;;;;4980707;28;8766;-67
2022/06/13 08:25:36;;;;;;;;;24.00;19.50;;;;;;;;4963270;28;8764;-66
2022/06/13 08:28:04;;;;;;;;;21.50;20.00;;;;;;;;4981826;28;8865;-67
2022/06/13 08:30:41;;;;;;;;;19.50;16.75;;;;;;;;4980523;28;9183;-67
2022/06/13 08:33:07;;;;;;;;;22.25;20.50;;;;;;;;4963838;28;8790;-67
2022/06/13 08:35:34;;;;;;;;;22.00;17.00;;;;;;;;4963145;28;8780;-67
2022/06/13 08:38:03;;;;;;;;;20.00;16.00;;;;;;;;4981244;28;8875;-67
2022/06/13 08:40:34;;;;;;;;;26.50;25.00;;;;;;;;4981544;28;8767;-67
2022/06/13 08:43:07;;;;;;;;;35.50;28.25;;;;;;;;4981895;28;8807;-67
2022/06/13 08:45:36;;;;;;;;;24.25;19.50;;;;;;;;4951524;28;9444;-67
2022/06/13 08:48:05;;;;;;;;;19.00;18.75;;;;;;;;4980785;28;8791;-67
2022/06/13 08:50:50;;;;;;;;;21.00;16.00;;;;;;;;4981120;28;8748;-67
2022/06/13 08:53:37;;;;;;;;;20.50;17.75;;;;;;;;4980736;28;8756;-65
2022/06/13 08:56:06;;;;;;;;;19.80;16.60;;;;;;;;4980489;28;8783;-67
2022/06/13 08:58:34;;;;;;;;;19.75;17.75;;;;;;;;4980466;28;8812;-67
2022/06/13 09:01:21;;;;;;;;;20.50;18.00;;;;;;;;4960270;28;8809;-67
2022/06/13 09:04:06;;;;;;;;;33.50;29.25;;;;;;;;4954227;28;8808;-67
2022/06/13 09:06:35;;;;;;;;;27.50;23.50;;;;;;;;4960622;28;8781;-67
2022/06/13 09:09:11;;;;;;;;;28.25;23.00;;;;;;;;4959996;28;8800;-67
2022/06/13 09:11:43;;;;;;;;;26.00;19.75;;;;;;;;4961155;28;8871;-67
2022/06/13 09:14:15;;;;;;;;;14.00;12.00;;;;;;;;4964683;28;8767;-67
2022/06/13 09:16:43;;;;;;;;;22.75;19.50;;;;;;;;4978817;28;8823;-67
2022/06/13 09:19:19;;;;;;;;;20.75;20.00;;;;;;;;4979651;28;8778;-67
2022/06/13 09:21:53;;;;;;;;;20.50;19.00;;;;;;;;4980543;28;9413;-67
2022/06/13 09:24:24;;;;;;;;;20.40;18.20;;;;;;;;4968391;28;8809;-66
2022/06/13 09:26:53;;;;;;;;;16.75;16.75;;;;;;;;4962845;28;8933;-67
2022/06/13 09:29:20;;;;;;;;;22.75;18.50;;;;;;;;4979787;28;8783;-66
2022/06/13 09:31:47;;;;;;;;;24.75;20.50;;;;;;;;4980125;28;8918;-67
2022/06/13 09:34:22;;;;;;;;;21.75;17.75;;;;;;;;4963624;28;8781;-67
2022/06/13 09:37:01;;;;;;;;;19.25;18.00;;;;;;;;4979818;28;8881;-67
2022/06/13 09:39:28;;;;;;;;;22.00;19.50;;;;;;;;4962501;28;8755;-67
2022/06/13 09:42:07;;;;;;;;;22.00;19.00;;;;;;;;4979610;28;8775;-68
2022/06/13 09:44:39;;;;;;;;;24.00;20.50;;;;;;;;4962742;28;8780;-68
2022/06/13 09:47:09;;;;;;;;;24.20;21.00;;;;;;;;4979943;28;8771;-67
2022/06/13 09:49:38;;;;;;;;;28.00;25.25;;;;;;;;4952294;28;8775;-68
2022/06/13 09:52:17;;;;;;;;;29.00;21.00;;;;;;;;4979281;28;8909;-68
2022/06/13 09:54:51;;;;;;;;;21.50;20.00;;;;;;;;4979428;28;8830;-68
2022/06/13 09:57:30;;;;;;;;;21.25;18.50;;;;;;;;4977925;28;8905;-67
2022/06/13 10:00:00;;;;;;;;;22.00;17.25;;;;;;;;4979336;28;8796;-67
2022/06/13 10:02:29;;;;;;;;;21.60;20.00;;;;;;;;4978746;28;8767;-67
2022/06/13 10:05:08;;;;;;;;;22.50;20.00;;;;;;;;4979446;28;8791;-67
2022/06/13 10:07:50;;;;;;;;;21.50;18.75;;;;;;;;4961421;28;8740;-67
2022/06/13 10:10:39;;;;;;;;;26.25;21.50;;;;;;;;4979858;28;8790;-67
2022/06/13 10:13:05;;;;;;;;;22.25;21.50;;;;;;;;4962843;28;8870;-67
2022/06/13 10:15:41;;;;;;;;;22.00;18.75;;;;;;;;4978886;28;8779;-67
2022/06/13 10:18:17;;;;;;;;;17.00;16.25;;;;;;;;4977279;28;8780;-67
2022/06/13 10:20:50;;;;;;;;;22.00;19.00;;;;;;;;4978844;28;9519;-67
2022/06/13 10:23:23;;;;;;;;;21.25;18.25;;;;;;;;4979089;28;8861;-67
2022/06/13 10:25:59;;;;;;;;;28.75;23.25;;;;;;;;4977941;28;8775;-67
2022/06/13 10:28:28;;;;;;;;;24.80;18.60;;;;;;;;4961487;28;8779;-65
2022/06/13 10:30:55;;;;;;;;;26.00;21.00;;;;;;;;4979374;28;8764;-67
2022/06/13 10:33:25;;;;;;;;;22.50;18.25;;;;;;;;4978736;28;8807;-67
2022/06/13 10:35:54;;;;;;;;;25.25;19.75;;;;;;;;4978911;28;8775;-67
2022/06/13 10:38:25;;;;;;;;;18.00;17.50;;;;;;;;4961167;28;8783;-67
2022/06/13 10:40:52;;;;;;;;;27.00;21.00;;;;;;;;4961914;28;9451;-67
2022/06/13 10:43:19;;;;;;;;;28.50;24.00;;;;;;;;4979268;28;8831;-66
2022/06/13 10:45:45;;;;;;;;;30.50;28.00;;;;;;;;4978313;28;8804;-67
2022/06/13 10:48:18;;;;;;;;;36.00;31.75;;;;;;;;4978622;28;8821;-67
2022/06/13 10:50:50;;;;;;;;;29.25;25.00;;;;;;;;4977440;28;8779;-67
2022/06/13 10:53:22;;;;;;;;;30.75;25.25;;;;;;;;4978728;28;8937;-66
2022/06/13 10:55:48;;;;;;;;;27.00;24.25;;;;;;;;4938981;28;9442;-67
2022/06/13 10:58:38;;;;;;;;;29.50;25.00;;;;;;;;4940636;29;8817;-67
2022/06/13 11:01:18;;;;;;;;;33.25;26.00;;;;;;;;4918539;29;8800;-67
2022/06/13 11:04:04;;;;;;;;;26.50;25.50;;;;;;;;4935650;29;9432;-67
2022/06/13 11:06:42;;;;;;;;;28.00;25.75;;;;;;;;4920831;29;8753;-67
2022/06/13 11:09:24;;;;;;;;;40.50;32.25;;;;;;;;4919951;29;9503;-67
2022/06/13 11:11:54;;;;;;;;;33.25;27.75;;;;;;;;4920915;29;8772;-67
2022/06/13 11:14:28;;;;;;;;;31.25;28.75;;;;;;;;4925074;29;8820;-66
2022/06/13 11:22:38;;;;;;;;;33.75;30.75;;;;;;;;4952113;29;8758;-67
2022/06/13 11:25:11;;;;;;;;;40.00;31.25;;;;;;;;4940338;28;8765;-67
2022/06/13 11:27:40;;;;;;;;;38.75;30.00;;;;;;;;4939462;29;8816;-67
2022/06/13 11:30:26;;;;;;;;;49.25;37.25;;;;;;;;4936854;28;8795;-67
2022/06/13 11:33:02;;;;;;;;;43.50;36.00;;;;;;;;4924749;29;9012;-67
2022/06/13 11:35:37;;;;;;;;;28.25;25.50;;;;;;;;4924680;29;8784;-67
2022/06/13 11:38:16;;;;;;;;;32.25;27.25;;;;;;;;4924794;29;8799;-67
2022/06/13 11:40:43;;;;;;;;;32.75;31.00;;;;;;;;4924640;29;8760;-67
2022/06/13 11:43:28;;;;;;;;;36.50;31.00;;;;;;;;4939630;29;8820;-67
2022/06/13 11:45:56;;;;;;;;;38.50;31.25;;;;;;;;4941536;29;8896;-67
2022/06/13 11:48:23;;;;;;;;;33.25;28.75;;;;;;;;4942817;28;9516;-67
2022/06/13 11:50:53;;;;;;;;;36.33;32.33;;;;;;;;4943499;29;8773;-67
2022/06/13 11:53:38;;;;;;;;;31.50;27.75;;;;;;;;4943107;28;8770;-63
2022/06/13 11:56:13;;;;;;;;;33.25;28.75;;;;;;;;4980742;28;8763;-67
2022/06/13 11:58:41;;;;;;;;;37.75;31.75;;;;;;;;4980717;28;8826;-67
2022/06/13 12:01:20;;;;;;;;;31.75;28.25;;;;;;;;4982108;28;8763;-67
2022/06/13 12:04:09;;;;;;;;;15.25;9.75;;;;;;;;4981612;28;8854;-67
2022/06/13 12:06:47;;;;;;;;;37.50;30.00;;;;;;;;4981311;28;8894;-67
2022/06/13 12:09:26;;;;;;;;;26.50;23.75;;;;;;;;4964667;28;8771;-67
2022/06/13 12:11:57;;;;;;;;;33.25;27.75;;;;;;;;4981512;28;8788;-67
2022/06/13 12:14:27;;;;;;;;;30.25;29.00;;;;;;;;4981141;28;8795;-66
2022/06/13 12:17:10;;;;;;;;;32.75;27.50;;;;;;;;4981648;28;8764;-67
2022/06/13 12:19:42;;;;;;;;;29.25;26.25;;;;;;;;4980829;28;8779;-67
2022/06/13 12:22:14;;;;;;;;;38.50;29.50;;;;;;;;4964513;28;8763;-67
2022/06/13 12:25:00;;;;;;;;;34.25;29.25;;;;;;;;4980085;28;8760;-67
2022/06/13 12:27:29;;;;;;;;;31.25;29.50;;;;;;;;4980665;28;8772;-67
2022/06/13 12:30:14;;;;;;;;;31.75;24.00;;;;;;;;4979951;28;8794;-68
2022/06/13 12:32:43;;;;;;;;;32.75;28.75;;;;;;;;4981024;28;8752;-67
2022/06/13 12:35:18;;;;;;;;;36.75;31.00;;;;;;;;4981091;28;8764;-67
2022/06/13 12:38:04;;;;;;;;;34.25;30.25;;;;;;;;4964278;28;8917;-68
2022/06/13 12:40:30;;;;;;;;;36.75;30.75;;;;;;;;4963572;28;8837;-67
2022/06/13 12:43:15;;;;;;;;;32.75;29.75;;;;;;;;4981125;28;8799;-67
2022/06/13 12:45:45;;;;;;;;;37.25;29.50;;;;;;;;4980414;28;8861;-67
2022/06/13 12:48:18;;;;;;;;;34.50;31.00;;;;;;;;4980793;28;8779;-67
2022/06/13 12:50:53;;;;;;;;;39.00;32.00;;;;;;;;4963775;28;8886;-67
2022/06/13 12:53:24;;;;;;;;;39.00;31.25;;;;;;;;4963006;28;8802;-65
2022/06/13 12:56:08;;;;;;;;;35.75;30.50;;;;;;;;4979950;28;8814;-68
2022/06/13 12:58:38;;;;;;;;;42.75;34.00;;;;;;;;4979585;28;9483;-67
2022/06/13 13:01:11;;;;;;;;;34.50;30.50;;;;;;;;4980904;28;8817;-67
2022/06/13 13:03:47;;;;;;;;;41.25;33.25;;;;;;;;4980429;28;8807;-67
2022/06/13 13:06:17;;;;;;;;;37.50;32.25;;;;;;;;4980584;28;9526;-67
2022/06/13 13:08:51;;;;;;;;;39.75;31.50;;;;;;;;4980409;28;8786;-68
2022/06/13 13:11:34;;;;;;;;;39.00;33.25;;;;;;;;4963038;28;9183;-63
2022/06/13 13:14:11;;;;;;;;;42.50;33.75;;;;;;;;4963223;28;8779;-68
2022/06/13 13:16:40;;;;;;;;;50.75;37.25;;;;;;;;4979129;28;8780;-67
2022/06/13 13:19:25;;;;;;;;;51.75;42.50;;;;;;;;4981059;28;9424;-68
2022/06/13 13:22:21;;;;;;;;;54.50;41.75;;;;;;;;4980773;28;8768;-67
2022/06/13 13:24:51;;;;;;;;;58.50;46.50;;;;;;;;4963866;28;9162;-68
2022/06/13 13:27:18;;;;;;;;;51.75;41.75;;;;;;;;4978929;28;8807;-66
2022/06/13 13:30:14;;;;;;;;;53.75;41.25;;;;;;;;4979944;28;8788;-68
2022/06/13 13:32:50;;;;;;;;;51.25;40.00;;;;;;;;4963835;28;8763;-68
2022/06/13 13:35:35;;;;;;;;;51.25;39.25;;;;;;;;4980250;28;9522;-66
2022/06/13 13:38:02;;;;;;;;;47.50;38.75;;;;;;;;4962583;28;8939;-67
2022/06/13 13:40:29;;;;;;;;;49.75;41.50;;;;;;;;4979817;28;8760;-67
2022/06/13 13:42:58;;;;;;;;;49.50;38.50;;;;;;;;4980781;28;8816;-67
2022/06/13 13:45:25;;;;;;;;;50.25;38.50;;;;;;;;4979499;28;9456;-67
2022/06/13 13:47:53;;;;;;;;;46.00;37.50;;;;;;;;4979364;28;8873;-67
2022/06/13 13:50:21;;;;;;;;;49.25;39.50;;;;;;;;4978272;28;8790;-66
2022/06/13 13:52:49;;;;;;;;;47.00;37.25;;;;;;;;4967893;28;8825;-67
2022/06/13 13:55:24;;;;;;;;;45.25;33.25;;;;;;;;4957142;28;8798;-68
2022/06/13 13:57:55;;;;;;;;;47.50;37.25;;;;;;;;4955699;29;9298;-67
2022/06/13 14:00:22;;;;;;;;;45.50;35.00;;;;;;;;4940819;28;8831;-67
2022/06/13 14:02:49;;;;;;;;;47.25;35.75;;;;;;;;4939965;29;8845;-68
2022/06/13 14:05:16;;;;;;;;;46.00;35.00;;;;;;;;4941179;28;8777;-67
2022/06/13 14:07:46;;;;;;;;;41.75;33.75;;;;;;;;4941133;28;8780;-68
2022/06/13 14:10:14;;;;;;;;;48.75;36.00;;;;;;;;4940542;28;8798;-67
2022/06/13 14:12:59;;;;;;;;;48.00;35.25;;;;;;;;4940734;28;8796;-67
2022/06/13 14:15:33;;;;;;;;;46.00;37.00;;;;;;;;4939224;28;8762;-68
2022/06/13 14:18:00;;;;;;;;;43.00;36.00;;;;;;;;4940790;28;9487;-67
2022/06/13 14:20:28;;;;;;;;;52.25;41.50;;;;;;;;4939457;28;8774;-67
2022/06/13 14:23:02;;;;;;;;;51.00;41.50;;;;;;;;4941073;28;8784;-67
2022/06/13 14:25:38;;;;;;;;;49.75;39.75;;;;;;;;4955297;28;8800;-67
2022/06/13 14:28:06;;;;;;;;;52.00;40.00;;;;;;;;4941326;29;8794;-68
2022/06/13 14:36:03;;;;;;;;;41.75;33.50;;;;;;;;4939377;28;9099;-68
2022/06/13 14:38:37;;;;;;;;;46.75;34.00;;;;;;;;4938920;29;8797;-68
2022/06/13 14:41:20;;;;;;;;;46.00;35.50;;;;;;;;4940408;28;9980;-68
2022/06/13 14:43:52;;;;;;;;;46.00;35.25;;;;;;;;4940405;28;9217;-68
2022/06/13 14:46:25;;;;;;;;;46.50;38.25;;;;;;;;4921890;29;8791;-65
2022/06/13 14:49:12;;;;;;;;;42.50;36.25;;;;;;;;4921813;29;8821;-67
2022/06/13 14:51:58;;;;;;;;;42.00;34.50;;;;;;;;4920694;29;8814;-68
2022/06/13 14:54:57;;;;;;;;;45.00;35.25;;;;;;;;4937579;28;8830;-67
2022/06/13 14:57:30;;;;;;;;;33.75;27.00;;;;;;;;4917031;28;8809;-67
2022/06/13 15:00:09;;;;;;;;;34.50;31.00;;;;;;;;4968316;28;8775;-68
2022/06/13 15:02:59;;;;;;;;;39.00;31.25;;;;;;;;4978143;28;8792;-67
2022/06/13 15:05:32;;;;;;;;;34.50;28.25;;;;;;;;4966759;28;8720;-67
2022/06/13 15:08:17;;;;;;;;;34.75;30.25;;;;;;;;4978470;28;8870;-67
2022/06/13 15:10:47;;;;;;;;;30.50;25.25;;;;;;;;4978653;28;8743;-67
2022/06/13 15:13:14;;;;;;;;;37.50;31.50;;;;;;;;4979216;28;8814;-68
2022/06/13 15:15:41;;;;;;;;;36.00;31.25;;;;;;;;4976819;28;8780;-68
2022/06/13 15:18:08;;;;;;;;;36.50;30.00;;;;;;;;4961277;28;8776;-68
2022/06/13 15:20:35;;;;;;;;;26.50;22.25;;;;;;;;4978022;28;8803;-68
2022/06/13 15:23:12;;;;;;;;;28.25;25.50;;;;;;;;4978666;28;8787;-67